AFR99KA LFPO-LFKB
Flight info
| Callsign | AFR99KA |
|---|---|
| Flight time | 1h 21m |
| Altitude | 37000 |
| Route | LATRA DCT LAMUT DCT UTUVA DCT TITVA DCT NOQAS DCT OTROT DCT RETNO DCT KOLON DCT NARTI UP991 NIRDO |
| Aircraft | A320/M-SDE2E3FGIJ1J4RWY/HB1D1G1 |
Departure
| Time | 2026-04-20 15:47 |
|---|---|
| Airport | Paris-Orly Airport (LFPO) |
Arrival
| Time | 2026-04-20 17:08 |
|---|---|
| Airport | Bastia-Poretta International airport (LFKB) |
| Time | Latitude | Longitude | Altitude | Speed | Heading |
|---|---|---|---|---|---|
| 2026-04-20 15:37 | 48.72575 | 2.36080 | 294 ft | 0 kts | 45° |
| 2026-04-20 15:40 | 48.72570 | 2.36073 | 294 ft | 3 kts | 45° |
| 2026-04-20 15:41 | 48.72554 | 2.36050 | 296 ft | 4 kts | 32° |
| 2026-04-20 15:41 | 48.72530 | 2.36034 | 296 ft | 4 kts | 10° |
| 2026-04-20 15:41 | 48.72504 | 2.36033 | 294 ft | 4 kts | 346° |
| 2026-04-20 15:41 | 48.72482 | 2.36049 | 294 ft | 4 kts | 298° |
| 2026-04-20 15:42 | 48.72478 | 2.36063 | 297 ft | 0 kts | 263° |
| 2026-04-20 15:44 | 48.72478 | 2.36052 | 295 ft | 5 kts | 263° |
| 2026-04-20 15:44 | 48.72472 | 2.35943 | 294 ft | 16 kts | 272° |
| 2026-04-20 15:44 | 48.72472 | 2.35728 | 294 ft | 25 kts | 258° |
| 2026-04-20 15:44 | 48.72387 | 2.35614 | 297 ft | 16 kts | 159° |
| 2026-04-20 15:45 | 48.72250 | 2.35605 | 293 ft | 24 kts | 187° |
| 2026-04-20 15:45 | 48.72087 | 2.35662 | 296 ft | 24 kts | 152° |
| 2026-04-20 15:45 | 48.72032 | 2.35752 | 295 ft | 0 kts | 124° |
| 2026-04-20 15:46 | 48.72013 | 2.35794 | 297 ft | 12 kts | 123° |
| 2026-04-20 15:46 | 48.71960 | 2.35925 | 295 ft | 17 kts | 96° |
| 2026-04-20 15:46 | 48.72024 | 2.36316 | 295 ft | 72 kts | 74° |
| 2026-04-20 15:46 | 48.72220 | 2.37373 | 296 ft | 134 kts | 74° |
| 2026-04-20 15:47 | 48.72508 | 2.38911 | 570 ft | 157 kts | 74° |
| 2026-04-20 15:47 | 48.72801 | 2.40507 | 1254 ft | 157 kts | 74° |
| 2026-04-20 15:47 | 48.73090 | 2.42074 | 1974 ft | 155 kts | 73° |
| 2026-04-20 15:47 | 48.73377 | 2.43635 | 2649 ft | 153 kts | 72° |
| 2026-04-20 15:48 | 48.73664 | 2.45205 | 3267 ft | 153 kts | 71° |
| 2026-04-20 15:48 | 48.73950 | 2.46760 | 3746 ft | 162 kts | 72° |
| 2026-04-20 15:48 | 48.74093 | 2.48587 | 4033 ft | 186 kts | 83° |
| 2026-04-20 15:48 | 48.74172 | 2.50661 | 4302 ft | 210 kts | 84° |
| 2026-04-20 15:49 | 48.74252 | 2.53003 | 4662 ft | 235 kts | 85° |
| 2026-04-20 15:49 | 48.74318 | 2.55592 | 5140 ft | 256 kts | 91° |
| 2026-04-20 15:49 | 48.73756 | 2.58188 | 5870 ft | 271 kts | 124° |
| 2026-04-20 15:49 | 48.72255 | 2.60096 | 6270 ft | 298 kts | 152° |
| 2026-04-20 15:50 | 48.70216 | 2.61208 | 6614 ft | 324 kts | 165° |
| 2026-04-20 15:50 | 48.67964 | 2.61932 | 7262 ft | 334 kts | 168° |
| 2026-04-20 15:50 | 48.65632 | 2.62263 | 8021 ft | 341 kts | 183° |
| 2026-04-20 15:50 | 48.63287 | 2.61613 | 8810 ft | 345 kts | 197° |
| 2026-04-20 15:51 | 48.61052 | 2.60233 | 9591 ft | 349 kts | 207° |
| 2026-04-20 15:51 | 48.58875 | 2.58581 | 10390 ft | 352 kts | 207° |
| 2026-04-20 15:51 | 48.56667 | 2.56923 | 11169 ft | 355 kts | 208° |
| 2026-04-20 15:51 | 48.54445 | 2.55249 | 11946 ft | 358 kts | 208° |
| 2026-04-20 15:52 | 48.52242 | 2.53575 | 12694 ft | 360 kts | 209° |
| 2026-04-20 15:52 | 48.50005 | 2.51860 | 13424 ft | 363 kts | 210° |
| 2026-04-20 15:52 | 48.47744 | 2.50121 | 14112 ft | 366 kts | 210° |
| 2026-04-20 15:53 | 48.42935 | 2.47365 | 15428 ft | 375 kts | 200° |
| 2026-04-20 15:53 | 48.40427 | 2.46224 | 16063 ft | 378 kts | 200° |
| 2026-04-20 15:53 | 48.37901 | 2.45084 | 16689 ft | 381 kts | 201° |
| 2026-04-20 15:53 | 48.35346 | 2.43931 | 17308 ft | 384 kts | 201° |
| 2026-04-20 15:54 | 48.32776 | 2.42773 | 17897 ft | 387 kts | 200° |
| 2026-04-20 15:54 | 48.30107 | 2.41989 | 18475 ft | 396 kts | 189° |
| 2026-04-20 15:54 | 48.27317 | 2.42052 | 19036 ft | 406 kts | 177° |
| 2026-04-20 15:54 | 48.24536 | 2.43031 | 19577 ft | 416 kts | 164° |
| 2026-04-20 15:55 | 48.21798 | 2.44508 | 20119 ft | 420 kts | 164° |
| 2026-04-20 15:55 | 48.19039 | 2.45993 | 20642 ft | 423 kts | 165° |
| 2026-04-20 15:55 | 48.16250 | 2.47481 | 21119 ft | 427 kts | 165° |
| 2026-04-20 15:55 | 48.13470 | 2.48954 | 21598 ft | 430 kts | 165° |
| 2026-04-20 15:56 | 48.10639 | 2.50445 | 22053 ft | 433 kts | 165° |
| 2026-04-20 15:56 | 48.07773 | 2.51956 | 22480 ft | 437 kts | 165° |
| 2026-04-20 15:56 | 48.04889 | 2.53439 | 22908 ft | 440 kts | 166° |
| 2026-04-20 15:56 | 48.01974 | 2.54887 | 23404 ft | 440 kts | 167° |
| 2026-04-20 15:57 | 47.99096 | 2.56289 | 24183 ft | 433 kts | 167° |
| 2026-04-20 15:57 | 47.96230 | 2.57675 | 24718 ft | 433 kts | 167° |
| 2026-04-20 15:57 | 47.93350 | 2.59063 | 25158 ft | 436 kts | 168° |
| 2026-04-20 15:57 | 47.90458 | 2.60464 | 25576 ft | 438 kts | 167° |
| 2026-04-20 15:58 | 47.87553 | 2.61881 | 25967 ft | 440 kts | 167° |
| 2026-04-20 15:58 | 47.84633 | 2.63309 | 26339 ft | 443 kts | 168° |
| 2026-04-20 15:58 | 47.81697 | 2.64748 | 26704 ft | 446 kts | 167° |
| 2026-04-20 15:58 | 47.78744 | 2.66195 | 27063 ft | 448 kts | 168° |
| 2026-04-20 15:59 | 47.75771 | 2.67654 | 27429 ft | 450 kts | 168° |
| 2026-04-20 15:59 | 47.72843 | 2.69090 | 27768 ft | 452 kts | 168° |
| 2026-04-20 15:59 | 47.69836 | 2.70558 | 28100 ft | 455 kts | 168° |
| 2026-04-20 15:59 | 47.66870 | 2.72001 | 28419 ft | 457 kts | 168° |
| 2026-04-20 16:00 | 47.63814 | 2.73487 | 28743 ft | 459 kts | 168° |
| 2026-04-20 16:00 | 47.60768 | 2.74963 | 29066 ft | 461 kts | 168° |
| 2026-04-20 16:00 | 47.57712 | 2.76446 | 29370 ft | 463 kts | 168° |
| 2026-04-20 16:00 | 47.54648 | 2.77934 | 29658 ft | 464 kts | 168° |
| 2026-04-20 16:01 | 47.51572 | 2.79421 | 29933 ft | 466 kts | 168° |
| 2026-04-20 16:01 | 47.48516 | 2.80891 | 30191 ft | 468 kts | 168° |
| 2026-04-20 16:01 | 47.45413 | 2.82381 | 30450 ft | 470 kts | 168° |
| 2026-04-20 16:01 | 47.42295 | 2.83883 | 30703 ft | 471 kts | 168° |
| 2026-04-20 16:02 | 47.39165 | 2.85388 | 30935 ft | 473 kts | 168° |
| 2026-04-20 16:02 | 47.36031 | 2.86893 | 31168 ft | 475 kts | 168° |
| 2026-04-20 16:02 | 47.32884 | 2.88404 | 31403 ft | 476 kts | 168° |
| 2026-04-20 16:02 | 47.29730 | 2.89918 | 31703 ft | 476 kts | 168° |
| 2026-04-20 16:03 | 47.26627 | 2.91405 | 32017 ft | 475 kts | 168° |
| 2026-04-20 16:03 | 47.23492 | 2.92912 | 32324 ft | 474 kts | 168° |
| 2026-04-20 16:03 | 47.20361 | 2.94420 | 32612 ft | 473 kts | 168° |
| 2026-04-20 16:03 | 47.17225 | 2.95926 | 32907 ft | 473 kts | 168° |
| 2026-04-20 16:04 | 47.14100 | 2.97419 | 33208 ft | 472 kts | 168° |
| 2026-04-20 16:04 | 47.10984 | 2.98891 | 33509 ft | 470 kts | 169° |
| 2026-04-20 16:04 | 47.07854 | 3.00277 | 33818 ft | 468 kts | 170° |
| 2026-04-20 16:04 | 47.04724 | 3.01567 | 34115 ft | 467 kts | 171° |
| 2026-04-20 16:05 | 47.01592 | 3.02806 | 34401 ft | 466 kts | 172° |
| 2026-04-20 16:05 | 46.98463 | 3.04033 | 34673 ft | 465 kts | 171° |
| 2026-04-20 16:05 | 46.95338 | 3.05267 | 34929 ft | 465 kts | 171° |
| 2026-04-20 16:05 | 46.92217 | 3.06518 | 35157 ft | 465 kts | 171° |
| 2026-04-20 16:06 | 46.89098 | 3.07786 | 35385 ft | 465 kts | 171° |
| 2026-04-20 16:06 | 46.85976 | 3.09069 | 35607 ft | 466 kts | 170° |
| 2026-04-20 16:06 | 46.82866 | 3.10352 | 35837 ft | 465 kts | 170° |
| 2026-04-20 16:06 | 46.79743 | 3.11643 | 36063 ft | 465 kts | 171° |
| 2026-04-20 16:07 | 46.76636 | 3.12921 | 36272 ft | 465 kts | 170° |
| 2026-04-20 16:07 | 46.73520 | 3.14196 | 36466 ft | 464 kts | 171° |
| 2026-04-20 16:07 | 46.70409 | 3.15463 | 36648 ft | 464 kts | 170° |
| 2026-04-20 16:07 | 46.67299 | 3.16724 | 36854 ft | 463 kts | 170° |
| 2026-04-20 16:08 | 46.64193 | 3.17985 | 37016 ft | 462 kts | 170° |
| 2026-04-20 16:08 | 46.61281 | 3.19169 | 37043 ft | 458 kts | 170° |
| 2026-04-20 16:08 | 46.55172 | 3.21652 | 37042 ft | 455 kts | 171° |
| 2026-04-20 16:09 | 46.49118 | 3.24087 | 37040 ft | 454 kts | 171° |
| 2026-04-20 16:09 | 46.43033 | 3.26531 | 37033 ft | 454 kts | 171° |
| 2026-04-20 16:10 | 46.36947 | 3.28972 | 37038 ft | 454 kts | 171° |
| 2026-04-20 16:10 | 46.30845 | 3.31407 | 37038 ft | 455 kts | 171° |
| 2026-04-20 16:11 | 46.24762 | 3.33847 | 37041 ft | 455 kts | 171° |
| 2026-04-20 16:11 | 46.18681 | 3.36280 | 37038 ft | 454 kts | 171° |
| 2026-04-20 16:12 | 46.13563 | 3.38321 | 37033 ft | 454 kts | 171° |
| 2026-04-20 16:12 | 46.06492 | 3.41139 | 37032 ft | 454 kts | 171° |
| 2026-04-20 16:13 | 46.01398 | 3.43160 | 37031 ft | 454 kts | 171° |
| 2026-04-20 16:13 | 45.94326 | 3.45951 | 37038 ft | 454 kts | 171° |
| 2026-04-20 16:14 | 45.89227 | 3.47963 | 37044 ft | 454 kts | 169° |
| 2026-04-20 16:14 | 45.83443 | 3.51797 | 37039 ft | 466 kts | 151° |
| 2026-04-20 16:15 | 45.78021 | 3.56946 | 37030 ft | 467 kts | 151° |
| 2026-04-20 16:15 | 45.72610 | 3.62044 | 37025 ft | 467 kts | 152° |
| 2026-04-20 16:16 | 45.67179 | 3.67134 | 37023 ft | 467 kts | 152° |
| 2026-04-20 16:16 | 45.61751 | 3.72213 | 37019 ft | 467 kts | 152° |
| 2026-04-20 16:17 | 45.56291 | 3.77315 | 37021 ft | 467 kts | 152° |
| 2026-04-20 16:17 | 45.50846 | 3.82390 | 37025 ft | 467 kts | 152° |
| 2026-04-20 16:18 | 45.45402 | 3.87468 | 37027 ft | 467 kts | 152° |
| 2026-04-20 16:18 | 45.39959 | 3.92519 | 37027 ft | 467 kts | 152° |
| 2026-04-20 16:19 | 45.35032 | 3.98557 | 37023 ft | 475 kts | 133° |
| 2026-04-20 16:19 | 45.31077 | 4.06162 | 37021 ft | 478 kts | 128° |
| 2026-04-20 16:20 | 45.27176 | 4.13815 | 37023 ft | 478 kts | 129° |
| 2026-04-20 16:20 | 45.23290 | 4.21394 | 37027 ft | 478 kts | 129° |
| 2026-04-20 16:21 | 45.19357 | 4.29045 | 37027 ft | 478 kts | 129° |
| 2026-04-20 16:21 | 45.15437 | 4.36648 | 37028 ft | 478 kts | 129° |
| 2026-04-20 16:22 | 45.11514 | 4.44228 | 37026 ft | 478 kts | 130° |
| 2026-04-20 16:22 | 45.07348 | 4.51536 | 37022 ft | 476 kts | 134° |
| 2026-04-20 16:23 | 45.02957 | 4.58500 | 37017 ft | 474 kts | 135° |
| 2026-04-20 16:23 | 44.98546 | 4.65444 | 37009 ft | 474 kts | 135° |
| 2026-04-20 16:24 | 44.94230 | 4.72425 | 37000 ft | 475 kts | 134° |
| 2026-04-20 16:24 | 44.89918 | 4.79480 | 36995 ft | 474 kts | 134° |
| 2026-04-20 16:25 | 44.85595 | 4.86520 | 36993 ft | 474 kts | 134° |
| 2026-04-20 16:25 | 44.81248 | 4.93516 | 36989 ft | 473 kts | 134° |
| 2026-04-20 16:26 | 44.76913 | 5.00472 | 36982 ft | 473 kts | 134° |
| 2026-04-20 16:26 | 44.72608 | 5.07379 | 36981 ft | 472 kts | 134° |
| 2026-04-20 16:27 | 44.68276 | 5.14320 | 36977 ft | 472 kts | 135° |
| 2026-04-20 16:27 | 44.63945 | 5.21246 | 36976 ft | 471 kts | 134° |
| 2026-04-20 16:28 | 44.59609 | 5.28159 | 36976 ft | 471 kts | 135° |
| 2026-04-20 16:28 | 44.55270 | 5.35058 | 36975 ft | 471 kts | 135° |
| 2026-04-20 16:29 | 44.50964 | 5.41902 | 36963 ft | 470 kts | 135° |
| 2026-04-20 16:29 | 44.46631 | 5.48760 | 36964 ft | 470 kts | 135° |
| 2026-04-20 16:30 | 44.42296 | 5.55602 | 36962 ft | 470 kts | 135° |
| 2026-04-20 16:30 | 44.37999 | 5.62477 | 36964 ft | 471 kts | 130° |
| 2026-04-20 16:31 | 44.34285 | 5.70032 | 36961 ft | 472 kts | 126° |
| 2026-04-20 16:31 | 44.30605 | 5.77611 | 36957 ft | 472 kts | 127° |
| 2026-04-20 16:32 | 44.26915 | 5.85177 | 36948 ft | 471 kts | 127° |
| 2026-04-20 16:32 | 44.23228 | 5.92733 | 36944 ft | 470 kts | 127° |
| 2026-04-20 16:33 | 44.19544 | 6.00270 | 36942 ft | 470 kts | 127° |
| 2026-04-20 16:33 | 44.15844 | 6.07790 | 36933 ft | 470 kts | 127° |
| 2026-04-20 16:34 | 44.12149 | 6.15299 | 36924 ft | 470 kts | 127° |
| 2026-04-20 16:34 | 44.08453 | 6.22799 | 36920 ft | 470 kts | 127° |
| 2026-04-20 16:35 | 44.04750 | 6.30295 | 36916 ft | 470 kts | 127° |
| 2026-04-20 16:35 | 44.01047 | 6.37769 | 36911 ft | 470 kts | 127° |
| 2026-04-20 16:36 | 43.97336 | 6.45243 | 36911 ft | 470 kts | 127° |
| 2026-04-20 16:36 | 43.93636 | 6.52667 | 36908 ft | 470 kts | 127° |
| 2026-04-20 16:37 | 43.89903 | 6.60138 | 36899 ft | 471 kts | 127° |
| 2026-04-20 16:37 | 43.86167 | 6.67599 | 36898 ft | 471 kts | 127° |
| 2026-04-20 16:38 | 43.82451 | 6.75014 | 36898 ft | 471 kts | 127° |
| 2026-04-20 16:38 | 43.78693 | 6.82475 | 36897 ft | 472 kts | 127° |
| 2026-04-20 16:39 | 43.74927 | 6.89918 | 36896 ft | 472 kts | 127° |
| 2026-04-20 16:39 | 43.71025 | 6.97222 | 36896 ft | 470 kts | 133° |
| 2026-04-20 16:40 | 43.66753 | 7.04075 | 36911 ft | 471 kts | 133° |
| 2026-04-20 16:40 | 43.62497 | 7.10895 | 36913 ft | 472 kts | 134° |
| 2026-04-20 16:41 | 43.58213 | 7.17748 | 36928 ft | 472 kts | 134° |
| 2026-04-20 16:41 | 43.54307 | 7.25049 | 36928 ft | 476 kts | 119° |
| 2026-04-20 16:42 | 43.51520 | 7.33355 | 36923 ft | 477 kts | 115° |
| 2026-04-20 16:42 | 43.48788 | 7.41694 | 36914 ft | 478 kts | 115° |
| 2026-04-20 16:43 | 43.46023 | 7.50040 | 36928 ft | 479 kts | 115° |
| 2026-04-20 16:43 | 43.43268 | 7.58324 | 36914 ft | 479 kts | 115° |
| 2026-04-20 16:44 | 43.40491 | 7.66684 | 36917 ft | 480 kts | 115° |
| 2026-04-20 16:44 | 43.39100 | 7.70874 | 36219 ft | 486 kts | 115° |
| 2026-04-20 16:44 | 43.37677 | 7.75146 | 35030 ft | 496 kts | 115° |
| 2026-04-20 16:45 | 43.36246 | 7.79420 | 34117 ft | 499 kts | 115° |
| 2026-04-20 16:45 | 43.34790 | 7.83762 | 33294 ft | 499 kts | 115° |
| 2026-04-20 16:45 | 43.33345 | 7.88071 | 32369 ft | 493 kts | 115° |
| 2026-04-20 16:45 | 43.31919 | 7.92319 | 31320 ft | 487 kts | 115° |
| 2026-04-20 16:46 | 43.30525 | 7.96459 | 30407 ft | 478 kts | 115° |
| 2026-04-20 16:46 | 43.29150 | 8.00532 | 29852 ft | 462 kts | 115° |
| 2026-04-20 16:46 | 43.27816 | 8.04478 | 29284 ft | 448 kts | 115° |
| 2026-04-20 16:46 | 43.26522 | 8.08302 | 28740 ft | 435 kts | 115° |
| 2026-04-20 16:47 | 43.25264 | 8.12021 | 28228 ft | 423 kts | 115° |
| 2026-04-20 16:47 | 43.24043 | 8.15629 | 27722 ft | 411 kts | 115° |
| 2026-04-20 16:47 | 43.22848 | 8.19153 | 27268 ft | 404 kts | 115° |
| 2026-04-20 16:47 | 43.21659 | 8.22647 | 26799 ft | 406 kts | 116° |
| 2026-04-20 16:48 | 43.20465 | 8.26149 | 26338 ft | 404 kts | 116° |
| 2026-04-20 16:48 | 43.19278 | 8.29629 | 25873 ft | 402 kts | 116° |
| 2026-04-20 16:48 | 43.18097 | 8.33095 | 25397 ft | 401 kts | 116° |
| 2026-04-20 16:48 | 43.16916 | 8.36554 | 24925 ft | 399 kts | 116° |
| 2026-04-20 16:49 | 43.15742 | 8.39996 | 24432 ft | 399 kts | 116° |
| 2026-04-20 16:49 | 43.14686 | 8.43503 | 23939 ft | 397 kts | 108° |
| 2026-04-20 16:49 | 43.14032 | 8.47187 | 23486 ft | 402 kts | 100° |
| 2026-04-20 16:49 | 43.13515 | 8.50958 | 23021 ft | 403 kts | 100° |
| 2026-04-20 16:50 | 43.12996 | 8.54735 | 22549 ft | 402 kts | 100° |
| 2026-04-20 16:50 | 43.12480 | 8.58451 | 22093 ft | 400 kts | 100° |
| 2026-04-20 16:50 | 43.11959 | 8.62178 | 21639 ft | 398 kts | 100° |
| 2026-04-20 16:50 | 43.11437 | 8.65890 | 21193 ft | 395 kts | 101° |
| 2026-04-20 16:51 | 43.10920 | 8.69574 | 20741 ft | 393 kts | 101° |
| 2026-04-20 16:51 | 43.10403 | 8.73239 | 20288 ft | 391 kts | 101° |
| 2026-04-20 16:51 | 43.09886 | 8.76895 | 19844 ft | 389 kts | 101° |
| 2026-04-20 16:51 | 43.09371 | 8.80522 | 19394 ft | 387 kts | 101° |
| 2026-04-20 16:52 | 43.08859 | 8.84131 | 18947 ft | 385 kts | 101° |
| 2026-04-20 16:52 | 43.08350 | 8.87713 | 18515 ft | 383 kts | 101° |
| 2026-04-20 16:52 | 43.07848 | 8.91236 | 18081 ft | 381 kts | 101° |
| 2026-04-20 16:52 | 43.07337 | 8.94781 | 17644 ft | 379 kts | 101° |
| 2026-04-20 16:53 | 43.06827 | 8.98317 | 17210 ft | 377 kts | 101° |
| 2026-04-20 16:53 | 43.06318 | 9.01834 | 16781 ft | 375 kts | 102° |
| 2026-04-20 16:53 | 43.05514 | 9.05205 | 16352 ft | 372 kts | 116° |
| 2026-04-20 16:53 | 43.04173 | 9.08199 | 15919 ft | 368 kts | 131° |
| 2026-04-20 16:54 | 43.02387 | 9.10656 | 15502 ft | 362 kts | 144° |
| 2026-04-20 16:54 | 43.00300 | 9.12520 | 15100 ft | 356 kts | 152° |
| 2026-04-20 16:54 | 42.98176 | 9.14247 | 14677 ft | 355 kts | 152° |
| 2026-04-20 16:54 | 42.96067 | 9.15972 | 14276 ft | 352 kts | 152° |
| 2026-04-20 16:55 | 42.93967 | 9.17692 | 13859 ft | 350 kts | 152° |
| 2026-04-20 16:55 | 42.91893 | 9.19392 | 13470 ft | 346 kts | 152° |
| 2026-04-20 16:55 | 42.89860 | 9.21058 | 13062 ft | 344 kts | 152° |
| 2026-04-20 16:55 | 42.87816 | 9.22733 | 12667 ft | 341 kts | 151° |
| 2026-04-20 16:56 | 42.85795 | 9.24389 | 12284 ft | 337 kts | 151° |
| 2026-04-20 16:56 | 42.83793 | 9.26028 | 11916 ft | 333 kts | 151° |
| 2026-04-20 16:56 | 42.81813 | 9.27643 | 11524 ft | 330 kts | 152° |
| 2026-04-20 16:56 | 42.79846 | 9.29242 | 11146 ft | 327 kts | 152° |
| 2026-04-20 16:57 | 42.77904 | 9.30823 | 10779 ft | 324 kts | 152° |
| 2026-04-20 16:57 | 42.75979 | 9.32392 | 10407 ft | 320 kts | 152° |
| 2026-04-20 16:57 | 42.74079 | 9.33940 | 10062 ft | 316 kts | 152° |
| 2026-04-20 16:57 | 42.72218 | 9.35454 | 9900 ft | 306 kts | 152° |
| 2026-04-20 16:58 | 42.70408 | 9.36925 | 9590 ft | 302 kts | 152° |
| 2026-04-20 16:58 | 42.68622 | 9.38370 | 9230 ft | 301 kts | 152° |
| 2026-04-20 16:58 | 42.66829 | 9.39817 | 8832 ft | 300 kts | 152° |
| 2026-04-20 16:58 | 42.65046 | 9.41259 | 8428 ft | 297 kts | 152° |
| 2026-04-20 16:59 | 42.63280 | 9.42692 | 7991 ft | 294 kts | 152° |
| 2026-04-20 16:59 | 42.61530 | 9.44108 | 7593 ft | 292 kts | 151° |
| 2026-04-20 16:59 | 42.60354 | 9.45060 | 7325 ft | 290 kts | 151° |
| 2026-04-20 16:59 | 42.58621 | 9.46463 | 6941 ft | 288 kts | 151° |
| 2026-04-20 17:00 | 42.55231 | 9.49178 | 6226 ft | 282 kts | 152° |
| 2026-04-20 17:00 | 42.53539 | 9.50494 | 5871 ft | 279 kts | 152° |
| 2026-04-20 17:00 | 42.51860 | 9.51791 | 5481 ft | 277 kts | 152° |
| 2026-04-20 17:01 | 42.50189 | 9.53081 | 5107 ft | 275 kts | 152° |
| 2026-04-20 17:01 | 42.48534 | 9.54360 | 4753 ft | 273 kts | 152° |
| 2026-04-20 17:01 | 42.46892 | 9.55635 | 4392 ft | 271 kts | 152° |
| 2026-04-20 17:01 | 42.45301 | 9.56875 | 4288 ft | 256 kts | 152° |
| 2026-04-20 17:02 | 42.43798 | 9.58048 | 4186 ft | 243 kts | 152° |
| 2026-04-20 17:02 | 42.42366 | 9.59151 | 4094 ft | 231 kts | 152° |
| 2026-04-20 17:02 | 42.40999 | 9.60190 | 3990 ft | 220 kts | 153° |
| 2026-04-20 17:02 | 42.39679 | 9.61190 | 3895 ft | 215 kts | 153° |
| 2026-04-20 17:03 | 42.38371 | 9.62156 | 3807 ft | 213 kts | 158° |
| 2026-04-20 17:03 | 42.36940 | 9.62429 | 3697 ft | 208 kts | 193° |
| 2026-04-20 17:03 | 42.35678 | 9.61559 | 3585 ft | 206 kts | 226° |
| 2026-04-20 17:03 | 42.35002 | 9.59880 | 3477 ft | 207 kts | 259° |
| 2026-04-20 17:04 | 42.35141 | 9.57964 | 3351 ft | 209 kts | 293° |
| 2026-04-20 17:04 | 42.36076 | 9.56486 | 3242 ft | 212 kts | 329° |
| 2026-04-20 17:04 | 42.37441 | 9.55793 | 3136 ft | 207 kts | 342° |
| 2026-04-20 17:04 | 42.38791 | 9.55252 | 3054 ft | 204 kts | 341° |
| 2026-04-20 17:05 | 42.40149 | 9.54695 | 2865 ft | 203 kts | 341° |
| 2026-04-20 17:05 | 42.41499 | 9.54135 | 2624 ft | 203 kts | 342° |
| 2026-04-20 17:05 | 42.42850 | 9.53569 | 2365 ft | 203 kts | 342° |
| 2026-04-20 17:05 | 42.44202 | 9.53004 | 2090 ft | 204 kts | 343° |
| 2026-04-20 17:06 | 42.45560 | 9.52437 | 1847 ft | 202 kts | 343° |
| 2026-04-20 17:06 | 42.46886 | 9.51883 | 1540 ft | 195 kts | 343° |
| 2026-04-20 17:06 | 42.48140 | 9.51359 | 1285 ft | 182 kts | 344° |
| 2026-04-20 17:06 | 42.49291 | 9.50877 | 1073 ft | 162 kts | 343° |
| 2026-04-20 17:07 | 42.50313 | 9.50449 | 856 ft | 146 kts | 343° |
| 2026-04-20 17:07 | 42.51258 | 9.50054 | 671 ft | 140 kts | 343° |
| 2026-04-20 17:07 | 42.52177 | 9.49670 | 483 ft | 138 kts | 343° |
| 2026-04-20 17:07 | 42.53085 | 9.49289 | 306 ft | 136 kts | 343° |
| 2026-04-20 17:08 | 42.53991 | 9.48911 | 114 ft | 137 kts | 343° |
| 2026-04-20 17:08 | 42.54845 | 9.48544 | 39 ft | 115 kts | 343° |
| 2026-04-20 17:08 | 42.55450 | 9.48298 | 37 ft | 66 kts | 343° |
| 2026-04-20 17:08 | 42.55774 | 9.48162 | 32 ft | 42 kts | 343° |
| 2026-04-20 17:09 | 42.55963 | 9.48037 | 30 ft | 24 kts | 285° |
| 2026-04-20 17:09 | 42.55891 | 9.47860 | 31 ft | 22 kts | 191° |
| 2026-04-20 17:09 | 42.55739 | 9.47918 | 32 ft | 24 kts | 163° |
| 2026-04-20 17:09 | 42.55577 | 9.47988 | 35 ft | 25 kts | 161° |
| 2026-04-20 17:10 | 42.55405 | 9.48060 | 36 ft | 27 kts | 163° |
| 2026-04-20 17:10 | 42.55223 | 9.48135 | 37 ft | 28 kts | 163° |
| 2026-04-20 17:10 | 42.55046 | 9.48211 | 38 ft | 25 kts | 162° |
| 2026-04-20 17:10 | 42.54890 | 9.48254 | 39 ft | 23 kts | 163° |
| 2026-04-20 17:11 | 42.54776 | 9.48295 | 37 ft | 4 kts | 200° |
| 2026-04-20 17:11 | 42.54771 | 9.48262 | 40 ft | 3 kts | 275° |
| 2026-04-20 17:11 | 42.54778 | 9.48220 | 39 ft | 5 kts | 283° |
| 2026-04-20 17:11 | 42.54784 | 9.48184 | 38 ft | 1 kts | 283° |
| 2026-04-20 17:12 | 42.54785 | 9.48182 | 39 ft | 0 kts | 283° |